createdAt,value
2022-11-16T00:01:44.283Z,12.40
2022-11-16T00:04:12.172Z,13.10
2022-11-16T00:06:39.266Z,13.90
2022-11-16T00:09:26.981Z,13.70
2022-11-16T00:11:55.794Z,13.10
2022-11-16T00:14:23.391Z,12.90
2022-11-16T00:16:50.347Z,13.40
2022-11-16T00:19:17.257Z,13.30
2022-11-16T00:21:44.103Z,13.40
2022-11-16T00:24:12.920Z,13.10
2022-11-16T00:26:39.873Z,12.40
2022-11-16T00:29:06.806Z,13.00
2022-11-16T00:31:33.590Z,12.80
2022-11-16T00:34:00.395Z,13.30
2022-11-16T00:36:27.482Z,12.40
2022-11-16T00:38:54.342Z,12.70
2022-11-16T00:41:21.376Z,12.10
2022-11-16T00:43:48.245Z,12.10
2022-11-16T00:46:15.152Z,12.30
2022-11-16T00:48:42.159Z,13.10
2022-11-16T00:51:09.391Z,12.40
2022-11-16T00:53:36.520Z,13.20
2022-11-16T00:56:03.808Z,13.10
2022-11-16T00:58:33.836Z,13.00
2022-11-16T01:01:09.139Z,12.90
2022-11-16T01:03:36.237Z,13.30
2022-11-16T01:06:08.190Z,13.40
2022-11-16T01:08:36.533Z,13.70
2022-11-16T01:11:22.734Z,13.90
2022-11-16T01:14:08.946Z,13.70
2022-11-16T01:16:36.639Z,13.40
2022-11-16T01:19:04.510Z,13.30
2022-11-16T01:21:32.063Z,13.00
2022-11-16T01:23:59.807Z,13.60
2022-11-16T01:26:27.283Z,13.00
2022-11-16T01:28:54.855Z,13.20
2022-11-16T01:31:22.305Z,13.20
2022-11-16T01:33:51.826Z,13.20
2022-11-16T01:36:25.496Z,13.40
2022-11-16T01:38:53.892Z,13.20
2022-11-16T01:41:25.601Z,13.10
2022-11-16T01:44:01.593Z,13.40
2022-11-16T01:46:45.371Z,13.90
2022-11-16T01:49:21.912Z,13.30
2022-11-16T01:51:53.247Z,13.80
2022-11-16T01:54:20.808Z,13.20
2022-11-16T01:56:58.021Z,12.90
2022-11-16T01:59:35.911Z,12.90
2022-11-16T02:02:04.412Z,13.60
2022-11-16T02:04:32.757Z,12.90
2022-11-16T02:07:54.341Z,13.70
2022-11-16T02:11:18.962Z,12.40
2022-11-16T02:14:00.971Z,12.60
2022-11-16T02:16:39.354Z,12.30
2022-11-16T02:19:59.575Z,11.80
2022-11-16T02:23:06.076Z,12.70
2022-11-16T02:25:45.628Z,11.60
2022-11-16T02:28:38.860Z,12.60
2022-11-16T02:31:06.867Z,13.80
2022-11-16T02:33:38.615Z,12.40
2022-11-16T02:36:06.773Z,13.00
2022-11-16T02:38:39.302Z,13.30
2022-11-16T02:41:12.029Z,13.20
2022-11-16T02:43:42.065Z,12.70
2022-11-16T02:46:39.049Z,12.90
2022-11-16T02:49:10.558Z,13.70
2022-11-16T02:51:37.971Z,14.90
2022-11-16T02:54:13.188Z,14.40
2022-11-16T02:57:16.083Z,13.70
2022-11-16T02:59:47.603Z,14.30
2022-11-16T03:02:18.971Z,14.70
2022-11-16T03:04:48.962Z,13.90
2022-11-16T03:07:18.005Z,13.50
2022-11-16T03:09:46.590Z,14.20
2022-11-16T03:12:21.881Z,14.00
2022-11-16T03:14:49.993Z,14.10
2022-11-16T03:17:42.384Z,13.90
2022-11-16T03:20:32.546Z,14.70
2022-11-16T03:23:01.783Z,13.80
2022-11-16T03:25:39.590Z,13.90
2022-11-16T03:28:39.364Z,13.90
2022-11-16T03:31:21.819Z,13.90
2022-11-16T03:33:52.711Z,14.60
2022-11-16T03:36:21.570Z,14.80
2022-11-16T03:38:51.001Z,15.80
2022-11-16T03:41:19.351Z,14.90
2022-11-16T03:43:46.939Z,14.90
2022-11-16T03:46:14.738Z,15.60
2022-11-16T03:48:42.096Z,15.90
2022-11-16T03:51:14.095Z,15.60
2022-11-16T03:53:42.661Z,15.40
2022-11-16T03:56:10.358Z,15.80
2022-11-16T03:58:38.646Z,15.20
2022-11-16T04:01:06.336Z,15.40
2022-11-16T04:03:33.950Z,15.10
2022-11-16T04:06:19.863Z,15.40
2022-11-16T04:09:05.849Z,15.30
2022-11-16T04:11:52.327Z,15.50
2022-11-16T04:14:39.411Z,14.80
2022-11-16T04:17:33.245Z,14.90
2022-11-16T04:20:19.164Z,16.30
2022-11-16T04:23:14.362Z,16.10
2022-11-16T04:25:42.085Z,16.00
2022-11-16T04:40:05.042Z,15.10
2022-11-16T04:42:32.578Z,15.90
2022-11-16T04:45:18.381Z,15.80
2022-11-16T04:47:51.633Z,15.70
2022-11-16T04:50:19.692Z,15.10
2022-11-16T04:52:47.229Z,15.10
2022-11-16T04:55:15.588Z,15.70
2022-11-16T04:57:44.125Z,15.80
2022-11-16T05:00:12.374Z,15.40
2022-11-16T05:02:40.301Z,15.40
2022-11-16T05:05:08.073Z,15.30
2022-11-16T05:07:36.259Z,15.20
2022-11-16T05:10:11.593Z,15.10
2022-11-16T05:12:39.146Z,15.00
2022-11-16T05:15:07.750Z,15.20
2022-11-16T05:17:35.463Z,14.50
2022-11-16T05:20:24.875Z,15.40
2022-11-16T05:22:56.984Z,15.40
2022-11-16T05:25:26.309Z,14.50
2022-11-16T05:27:54.256Z,14.70
2022-11-16T05:30:21.928Z,14.50
2022-11-16T05:32:49.512Z,14.20
2022-11-16T05:35:18.559Z,14.00
2022-11-16T05:37:46.872Z,13.60
2022-11-16T05:40:14.216Z,14.20
2022-11-16T05:42:46.879Z,14.10
2022-11-16T05:45:19.800Z,14.00
2022-11-16T05:47:48.741Z,13.90
2022-11-16T05:50:16.640Z,13.20
2022-11-16T05:52:46.995Z,13.20
2022-11-16T05:55:14.490Z,15.40
2022-11-16T05:57:43.522Z,16.20
2022-11-16T06:00:11.907Z,15.60
2022-11-16T06:02:47.638Z,13.70
2022-11-16T06:07:48.626Z,12.60
2022-11-16T21:29:17.099Z,5.80
2022-11-16T21:31:44.216Z,4.80
2022-11-16T21:34:10.918Z,6.50
2022-11-16T21:36:37.926Z,6.10
2022-11-16T21:39:04.751Z,5.70
2022-11-16T21:41:31.890Z,5.90
2022-11-16T21:43:58.571Z,5.40
2022-11-16T21:46:26.329Z,5.30
2022-11-16T21:48:54.242Z,5.30
2022-11-16T21:51:22.189Z,5.10
2022-11-16T21:53:48.878Z,4.50
2022-11-16T21:56:19.672Z,4.70
2022-11-16T21:58:46.320Z,4.20
2022-11-16T22:01:13.423Z,4.50
2022-11-16T22:03:40.186Z,4.50
2022-11-16T22:06:26.037Z,4.50
2022-11-16T22:08:52.820Z,4.40
2022-11-16T22:11:22.070Z,4.20
2022-11-16T22:13:49.429Z,4.50
2022-11-16T22:16:16.767Z,4.10
2022-11-16T22:18:43.547Z,4.50
2022-11-16T22:21:10.367Z,4.30
2022-11-16T22:23:37.728Z,4.20
2022-11-16T22:26:09.140Z,4.10
2022-11-16T22:28:36.286Z,4.50
2022-11-16T22:31:07.131Z,4.40
2022-11-16T22:33:34.567Z,4.50
2022-11-16T22:36:01.588Z,4.50
2022-11-16T22:38:28.236Z,4.20
2022-11-16T22:40:55.775Z,4.30
2022-11-16T22:43:27.295Z,3.90
2022-11-16T22:46:01.150Z,3.40
2022-11-16T22:51:28.182Z,3.60
2022-11-16T22:53:55.913Z,3.50
2022-11-16T22:56:22.713Z,3.70
2022-11-16T22:58:49.335Z,3.60
2022-11-16T23:01:15.983Z,3.40
2022-11-16T23:03:42.729Z,3.60
2022-11-16T23:06:09.672Z,3.30
2022-11-16T23:08:36.453Z,3.00
2022-11-16T23:11:26.211Z,3.20
2022-11-16T23:14:12.054Z,3.10
2022-11-16T23:16:39.072Z,2.80
2022-11-16T23:19:29.195Z,3.20
2022-11-16T23:22:14.567Z,3.10
2022-11-16T23:24:59.990Z,3.40
2022-11-16T23:27:31.761Z,3.10
2022-11-16T23:29:59.033Z,3.30
2022-11-16T23:32:25.897Z,3.10
2022-11-16T23:34:52.564Z,3.20
2022-11-16T23:37:19.191Z,3.30
2022-11-16T23:39:45.838Z,3.30
2022-11-16T23:42:31.408Z,3.70
2022-11-16T23:44:58.036Z,3.50
2022-11-16T23:47:24.768Z,3.50
2022-11-16T23:49:51.439Z,3.50
2022-11-16T23:52:18.218Z,3.80
2022-11-16T23:54:44.949Z,3.30
2022-11-16T23:57:11.655Z,3.20
2022-11-16T23:59:38.287Z,3.40
